createdAt,value
2022-11-22T00:00:44.873Z,99049.63
2022-11-22T00:03:12.666Z,99054.84
2022-11-22T00:05:39.727Z,99060.09
2022-11-22T00:08:07.586Z,99057.41
2022-11-22T00:10:35.364Z,99062.59
2022-11-22T00:13:03.356Z,99062.59
2022-11-22T00:15:31.056Z,99070.34
2022-11-22T00:17:58.363Z,99062.44
2022-11-22T00:20:25.805Z,99059.81
2022-11-22T00:22:53.349Z,99066.00
2022-11-22T00:25:20.350Z,99072.97
2022-11-22T00:27:47.417Z,99071.22
2022-11-22T00:30:14.541Z,99067.63
2022-11-22T00:32:41.677Z,99067.56
2022-11-22T00:35:10.786Z,99064.03
2022-11-22T00:37:38.251Z,99053.56
2022-11-22T00:40:07.147Z,99057.97
2022-11-22T00:42:34.176Z,99066.66
2022-11-22T00:45:01.343Z,99071.81
2022-11-22T00:47:28.358Z,99064.72
2022-11-22T00:49:55.357Z,99062.94
2022-11-22T00:52:22.383Z,99059.53
2022-11-22T00:54:54.485Z,99070.91
2022-11-22T00:57:22.851Z,99071.75
2022-11-22T00:59:50.057Z,99060.44
2022-11-22T01:02:17.139Z,99075.34
2022-11-22T01:04:44.223Z,99067.44
2022-11-22T01:07:11.692Z,99071.88
2022-11-22T01:09:38.856Z,99077.19
2022-11-22T01:12:06.159Z,99082.34
2022-11-22T01:14:33.217Z,99078.75
2022-11-22T01:17:00.408Z,99082.97
2022-11-22T01:19:27.617Z,99088.84
2022-11-22T01:21:54.819Z,99078.19
2022-11-22T01:24:21.970Z,99090.34
2022-11-22T01:26:48.861Z,99076.44
2022-11-22T01:29:15.984Z,99069.44
2022-11-22T01:31:43.015Z,99060.81
2022-11-22T01:34:10.097Z,99060.97
2022-11-22T01:36:37.129Z,99059.47
2022-11-22T01:39:05.037Z,99063.97
2022-11-22T01:41:32.187Z,99068.53
2022-11-22T01:44:36.003Z,99075.53
2022-11-22T01:47:18.123Z,99079.09
2022-11-22T01:49:53.778Z,99089.59
2022-11-22T01:52:25.810Z,99088.75
2022-11-22T01:55:03.081Z,99086.00
2022-11-22T01:57:38.583Z,99092.09
2022-11-22T02:00:13.638Z,99092.19
2022-11-22T02:02:51.548Z,99091.41
2022-11-22T02:05:23.747Z,99097.75
2022-11-22T02:08:14.403Z,99094.50
2022-11-22T02:10:48.533Z,99096.41
2022-11-22T02:13:20.531Z,99098.41
2022-11-22T02:15:47.593Z,99099.47
2022-11-22T02:18:14.650Z,99099.56
2022-11-22T02:20:42.032Z,99095.59
2022-11-22T02:23:23.792Z,99112.97
2022-11-22T02:25:55.386Z,99123.63
2022-11-22T02:28:23.398Z,99115.94
2022-11-22T02:30:50.388Z,99115.97
2022-11-22T02:33:17.567Z,99111.69
2022-11-22T02:35:44.732Z,99113.38
2022-11-22T02:38:18.404Z,99115.06
2022-11-22T02:41:07.249Z,99114.16
2022-11-22T02:43:42.272Z,99115.97
2022-11-22T02:46:23.519Z,99104.78
2022-11-22T02:48:50.997Z,99111.78
2022-11-22T02:51:19.950Z,99106.56
2022-11-22T02:53:50.349Z,99115.38
2022-11-22T02:56:18.081Z,99124.06
2022-11-22T02:58:46.047Z,99130.16
2022-11-22T03:01:14.240Z,99127.47
2022-11-22T03:03:41.379Z,99130.81
2022-11-22T03:06:09.382Z,99127.22
2022-11-22T03:08:36.349Z,99126.16
2022-11-22T03:11:03.362Z,99125.94
2022-11-22T03:13:30.386Z,99131.91
2022-11-22T03:15:57.456Z,99134.41
2022-11-22T03:18:25.817Z,99132.66
2022-11-22T03:20:52.777Z,99130.88
2022-11-22T03:23:19.887Z,99134.47
2022-11-22T03:25:46.921Z,99142.41
2022-11-22T03:28:13.956Z,99141.81
2022-11-22T03:30:42.532Z,99140.22
2022-11-22T03:33:10.230Z,99146.50
2022-11-22T03:35:37.320Z,99140.53
2022-11-22T03:38:04.483Z,99141.56
2022-11-22T03:40:31.879Z,99146.03
2022-11-22T03:43:01.224Z,99139.25
2022-11-22T03:45:29.411Z,99149.78
2022-11-22T03:47:57.260Z,99155.13
2022-11-22T03:50:24.511Z,99154.44
2022-11-22T03:52:51.542Z,99167.59
2022-11-22T03:55:18.624Z,99161.63
2022-11-22T03:57:45.641Z,99163.53
2022-11-22T04:00:13.362Z,99168.88
2022-11-22T04:02:41.391Z,99169.81
2022-11-22T04:05:09.087Z,99164.75
2022-11-22T04:07:36.347Z,99173.56
2022-11-22T04:10:05.181Z,99178.84
2022-11-22T04:12:32.324Z,99178.88
2022-11-22T04:15:08.720Z,99180.72
2022-11-22T04:17:45.103Z,99183.31
2022-11-22T04:20:46.279Z,99186.88
2022-11-22T04:23:22.471Z,99194.69
2022-11-22T04:25:53.805Z,99203.50
2022-11-22T04:29:08.306Z,99208.72
2022-11-22T04:31:31.083Z,99201.91
2022-11-22T04:33:58.164Z,99196.81
2022-11-22T04:36:26.216Z,99197.84
2022-11-22T04:38:53.165Z,99203.22
2022-11-22T04:41:20.201Z,99194.66
2022-11-22T04:44:06.306Z,99197.38
2022-11-22T04:46:33.406Z,99195.75
2022-11-22T04:49:00.397Z,99202.78
2022-11-22T04:51:46.206Z,99201.13
2022-11-22T04:54:13.233Z,99201.19
2022-11-22T04:56:40.229Z,99209.91
2022-11-22T04:59:07.269Z,99215.22
2022-11-22T05:01:34.317Z,99218.78
2022-11-22T05:04:01.288Z,99221.56
2022-11-22T05:06:30.486Z,99218.06
2022-11-22T05:08:57.556Z,99213.84
2022-11-22T05:11:24.546Z,99205.28
2022-11-22T05:13:51.550Z,99205.34
2022-11-22T05:16:18.683Z,99208.06
2022-11-22T05:18:59.042Z,99206.47
2022-11-22T05:21:28.012Z,99210.03
2022-11-22T05:23:56.419Z,99227.53
2022-11-22T05:26:35.103Z,99219.84
2022-11-22T05:29:08.963Z,99215.63
2022-11-22T05:31:39.003Z,99220.13
2022-11-22T05:34:06.222Z,99213.19
2022-11-22T05:36:34.858Z,99212.38
2022-11-22T05:39:03.051Z,99216.78
2022-11-22T05:41:30.248Z,99220.34
2022-11-22T05:43:58.351Z,99208.28
2022-11-22T05:46:29.061Z,99211.03
2022-11-22T05:48:58.342Z,99216.22
2022-11-22T05:51:34.507Z,99220.59
2022-11-22T05:54:03.249Z,99228.50
2022-11-22T05:56:30.510Z,99222.47
2022-11-22T05:58:57.749Z,99225.91
2022-11-22T06:01:25.393Z,99218.13
2022-11-22T06:03:53.117Z,99214.66
2022-11-22T06:06:20.836Z,99214.72
2022-11-22T06:08:48.938Z,99223.34
2022-11-22T06:11:20.623Z,99216.38
2022-11-22T06:13:51.909Z,99223.34
2022-11-22T06:16:19.279Z,99224.13
2022-11-22T06:18:47.618Z,99223.09
2022-11-22T06:21:19.604Z,99211.75
2022-11-22T06:23:46.719Z,99228.03
2022-11-22T06:26:18.385Z,99235.53
2022-11-22T06:28:47.371Z,99235.03
2022-11-22T06:31:21.610Z,99240.09
2022-11-22T06:33:49.681Z,99236.88
2022-11-22T06:36:24.007Z,99235.44
2022-11-22T06:38:51.711Z,99241.88
2022-11-22T06:41:31.251Z,99247.38
2022-11-22T06:43:58.261Z,99244.19
2022-11-22T06:46:27.445Z,99244.41
2022-11-22T06:48:55.152Z,99235.09
2022-11-22T06:51:29.842Z,99237.88
2022-11-22T06:53:58.427Z,99232.81
2022-11-22T06:56:32.291Z,99248.59
2022-11-22T06:59:03.882Z,99255.59
2022-11-22T07:01:33.720Z,99254.75
2022-11-22T07:04:05.530Z,99257.41
2022-11-22T07:06:37.179Z,99261.88
2022-11-22T07:09:11.013Z,99267.97
2022-11-22T07:11:40.045Z,99265.38
2022-11-22T07:14:09.131Z,99276.66
2022-11-22T07:16:38.483Z,99279.22
2022-11-22T07:19:06.803Z,99272.28
2022-11-22T07:21:37.293Z,99274.06
2022-11-22T07:24:06.975Z,99274.94
2022-11-22T07:26:34.485Z,99284.47
2022-11-22T07:29:01.487Z,99281.88
2022-11-22T07:31:28.778Z,99290.53
2022-11-22T07:34:00.168Z,99292.19
2022-11-22T07:36:29.604Z,99289.50
2022-11-22T07:38:56.755Z,99291.88
2022-11-22T07:41:24.134Z,99297.59
2022-11-22T07:43:52.946Z,99305.06
2022-11-22T07:46:22.894Z,99301.22
2022-11-22T07:48:50.504Z,99303.47
2022-11-22T07:51:18.602Z,99316.16
2022-11-22T07:53:45.950Z,99309.78
2022-11-22T07:56:13.900Z,99312.94
2022-11-22T07:58:41.286Z,99304.84
2022-11-22T08:01:15.001Z,99305.38
2022-11-22T08:03:44.260Z,99304.34
2022-11-22T08:06:13.542Z,99310.25
2022-11-22T08:08:40.794Z,99311.84
2022-11-22T08:11:08.731Z,99309.91
2022-11-22T08:13:36.491Z,99305.44
2022-11-22T08:16:08.634Z,99308.78
2022-11-22T08:18:39.079Z,99311.22
2022-11-22T08:21:11.977Z,99309.31
2022-11-22T08:23:40.133Z,99314.50
2022-11-22T08:26:14.815Z,99313.50
2022-11-22T08:28:44.664Z,99314.22
2022-11-22T08:31:16.085Z,99306.22
2022-11-22T08:33:43.211Z,99315.69
2022-11-22T08:36:10.341Z,99318.09
2022-11-22T08:38:38.021Z,99316.16
2022-11-22T08:41:08.293Z,99313.41
2022-11-22T08:43:37.442Z,99314.13
2022-11-22T08:46:06.753Z,99319.13
2022-11-22T08:48:36.731Z,99315.50
2022-11-22T08:51:10.060Z,99318.81
2022-11-22T08:53:43.814Z,99322.13
2022-11-22T08:56:14.152Z,99321.97
2022-11-22T08:58:41.955Z,99318.41
2022-11-22T09:01:16.046Z,99321.72
2022-11-22T09:03:45.158Z,99317.28
2022-11-22T09:09:29.933Z,99323.63
2022-11-22T09:11:50.687Z,99337.28
2022-11-22T09:14:21.281Z,99333.53
2022-11-22T09:16:48.315Z,99329.00
2022-11-22T09:19:16.479Z,99327.78
2022-11-22T09:21:43.661Z,99333.66
2022-11-22T09:24:10.695Z,99343.88
2022-11-22T09:26:38.856Z,99334.97
2022-11-22T09:29:05.883Z,99340.16
2022-11-22T09:31:32.930Z,99346.28
2022-11-22T09:34:01.807Z,99348.94
2022-11-22T09:36:29.159Z,99342.94
2022-11-22T09:38:56.913Z,99349.88
2022-11-22T09:41:57.690Z,99346.94
2022-11-22T09:45:03.752Z,99339.22
2022-11-22T09:47:51.843Z,99335.28
2022-11-22T09:50:45.741Z,99332.53
2022-11-22T09:53:37.629Z,99330.78
2022-11-22T09:56:13.105Z,99330.78
2022-11-22T09:58:51.751Z,99324.25
2022-11-22T10:01:30.688Z,99331.50
2022-11-22T10:04:10.289Z,99314.69
2022-11-22T10:06:54.100Z,99319.50
2022-11-22T10:09:42.730Z,99320.94
2022-11-22T10:12:22.966Z,99318.06
2022-11-22T10:15:26.291Z,99315.19
2022-11-22T10:18:38.518Z,99311.28
2022-11-22T10:21:13.107Z,99306.78
2022-11-22T10:23:44.557Z,99310.00
2022-11-22T10:26:26.284Z,99313.34
2022-11-22T10:29:19.863Z,99302.81
2022-11-22T10:32:22.158Z,99303.44
2022-11-22T10:35:11.549Z,99300.63
2022-11-22T10:38:03.195Z,99298.72
2022-11-22T10:40:53.377Z,99305.41
2022-11-22T10:43:42.325Z,99310.47
2022-11-22T10:46:46.559Z,99297.41
2022-11-22T10:49:44.488Z,99297.28
2022-11-22T10:52:48.114Z,99308.47
2022-11-22T10:55:23.641Z,99297.13
2022-11-22T10:58:32.573Z,99293.81
2022-11-22T11:01:33.609Z,99288.59
2022-11-22T11:04:04.067Z,99286.91
2022-11-22T11:13:05.957Z,99269.31
2022-11-22T11:15:52.726Z,99272.44
2022-11-22T11:18:51.627Z,99272.19
2022-11-22T11:21:20.798Z,99266.72
2022-11-22T11:23:48.442Z,99262.25
2022-11-22T11:26:26.694Z,99265.50
2022-11-22T11:29:18.622Z,99254.09
2022-11-22T11:31:52.072Z,99263.81
2022-11-22T11:34:30.211Z,99264.59
2022-11-22T11:37:01.026Z,99251.25
2022-11-22T11:39:32.479Z,99259.78
2022-11-22T11:42:23.187Z,99265.53
2022-11-22T11:44:51.236Z,99254.94
2022-11-22T11:47:34.069Z,99256.66
2022-11-22T11:50:01.506Z,99257.50
2022-11-22T11:52:30.166Z,99254.94
2022-11-22T11:55:02.198Z,99260.19
2022-11-22T11:57:34.903Z,99261.91
2022-11-22T12:00:19.531Z,99255.03
2022-11-22T12:02:48.027Z,99256.56
2022-11-22T12:05:15.057Z,99256.56
2022-11-22T12:07:44.746Z,99258.31
2022-11-22T12:10:33.336Z,99253.94
2022-11-22T12:13:13.732Z,99262.81
2022-11-22T12:16:13.895Z,99255.94
2022-11-22T12:19:08.646Z,99257.91
2022-11-22T12:21:56.667Z,99264.25
2022-11-22T12:24:57.323Z,99267.81
2022-11-22T12:27:24.050Z,99257.50
2022-11-22T12:29:53.581Z,99255.81
2022-11-22T12:32:42.244Z,99262.88
2022-11-22T12:35:24.974Z,99261.41
2022-11-22T12:38:44.973Z,99251.91
2022-11-22T12:41:18.070Z,99257.28
2022-11-22T12:43:56.979Z,99254.81
2022-11-22T12:46:33.243Z,99249.63
2022-11-22T12:49:16.010Z,99253.25
2022-11-22T12:51:57.935Z,99253.16
2022-11-22T12:54:45.297Z,99249.75
2022-11-22T12:57:28.865Z,99246.16
2022-11-22T13:00:15.692Z,99251.31
2022-11-22T13:03:08.686Z,99249.63
2022-11-22T13:05:57.693Z,99251.41
2022-11-22T13:08:42.409Z,99248.97
2022-11-22T13:11:18.513Z,99258.56
2022-11-22T13:13:52.375Z,99258.56
2022-11-22T13:16:19.441Z,99253.44
2022-11-22T13:19:00.310Z,99251.59
2022-11-22T13:22:19.312Z,99258.41
2022-11-22T13:25:28.150Z,99253.09
2022-11-22T13:28:01.086Z,99253.16
2022-11-22T13:30:30.725Z,99255.72
2022-11-22T13:33:00.871Z,99251.31
2022-11-22T13:35:34.821Z,99250.41
2022-11-22T13:38:18.128Z,99251.19
2022-11-22T13:40:51.631Z,99252.03
2022-11-22T13:43:22.475Z,99251.25
2022-11-22T13:45:54.712Z,99252.03
2022-11-22T13:48:39.780Z,99247.56
2022-11-22T13:51:07.914Z,99248.56
2022-11-22T13:53:40.444Z,99239.81
2022-11-22T13:56:35.856Z,99236.28
2022-11-22T13:59:14.979Z,99238.91
2022-11-22T14:01:42.020Z,99242.31
2022-11-22T14:04:20.240Z,99241.41
2022-11-22T14:06:52.206Z,99238.78
2022-11-22T14:09:44.186Z,99237.84
2022-11-22T14:12:11.113Z,99240.59
2022-11-22T14:14:59.254Z,99247.69
2022-11-22T14:17:42.397Z,99238.28
2022-11-22T14:21:03.756Z,99245.38
2022-11-22T14:24:24.577Z,99238.41
2022-11-22T14:27:09.680Z,99236.78
2022-11-22T14:30:04.184Z,99235.91
2022-11-22T14:33:02.597Z,99232.56
2022-11-22T14:35:31.495Z,99228.19
2022-11-22T14:38:32.002Z,99225.50
2022-11-22T14:41:41.700Z,99219.31
2022-11-22T14:44:18.253Z,99221.16
2022-11-22T14:47:14.721Z,99225.56
2022-11-22T14:49:48.912Z,99224.72
2022-11-22T14:52:27.983Z,99216.03
2022-11-22T14:55:13.773Z,99206.69
2022-11-22T14:57:42.102Z,99216.41
2022-11-22T15:00:20.549Z,99219.78
2022-11-22T15:03:16.943Z,99216.53
2022-11-22T15:09:14.330Z,99218.38
2022-11-22T15:09:53.402Z,99222.91
2022-11-22T15:13:09.615Z,99216.03
2022-11-22T15:57:30.788Z,99272.50
2022-11-22T15:59:58.910Z,99276.09
2022-11-22T16:02:31.124Z,99270.06
2022-11-22T16:06:05.785Z,99271.97
2022-11-22T16:07:56.983Z,99268.72
2022-11-22T16:10:42.374Z,99284.50
2022-11-22T16:13:19.675Z,99278.50
2022-11-22T16:16:29.144Z,99276.81
2022-11-22T16:19:21.194Z,99272.66
2022-11-22T16:22:02.154Z,99277.16
2022-11-22T16:24:32.089Z,99286.00
2022-11-22T16:27:15.085Z,99285.28
2022-11-22T16:29:51.802Z,99277.56
2022-11-22T16:32:19.806Z,99281.09
2022-11-22T16:34:51.563Z,99288.09
2022-11-22T16:37:37.682Z,99291.78
2022-11-22T16:40:06.297Z,99288.38
2022-11-22T16:42:50.764Z,99289.38
2022-11-22T16:45:51.150Z,99289.63
2022-11-22T16:48:31.933Z,99284.59
2022-11-22T16:51:05.721Z,99288.91
2022-11-22T16:53:42.275Z,99289.88
2022-11-22T16:56:24.604Z,99283.88
2022-11-22T16:58:55.071Z,99290.84
2022-11-22T17:01:26.579Z,99293.47
2022-11-22T17:03:57.986Z,99292.56
2022-11-22T17:06:28.695Z,99298.53
2022-11-22T17:08:58.918Z,99293.38
2022-11-22T17:11:32.065Z,99290.66
2022-11-22T17:14:00.495Z,99295.91
2022-11-22T17:16:27.641Z,99300.25
2022-11-22T17:18:56.491Z,99302.84
2022-11-22T17:21:31.570Z,99306.28
2022-11-22T17:24:18.888Z,99300.97
2022-11-22T17:26:47.905Z,99306.28
2022-11-22T17:29:42.807Z,99308.09
2022-11-22T17:32:02.339Z,99312.50
2022-11-22T17:34:29.966Z,99319.44
2022-11-22T17:36:57.190Z,99320.19
2022-11-22T17:39:24.391Z,99316.69
2022-11-22T17:41:52.363Z,99314.94
2022-11-22T17:44:22.707Z,99311.41
2022-11-22T17:46:49.943Z,99316.66
2022-11-22T17:49:16.995Z,99320.03
2022-11-22T17:51:44.182Z,99312.16
2022-11-22T17:54:11.286Z,99323.53
2022-11-22T17:56:38.326Z,99313.88
2022-11-22T17:59:05.568Z,99320.84
2022-11-22T18:01:32.804Z,99323.44
2022-11-22T18:03:59.903Z,99326.06
2022-11-22T18:06:26.932Z,99334.81
2022-11-22T18:08:54.478Z,99333.09
2022-11-22T18:11:21.630Z,99336.50
2022-11-22T18:13:48.754Z,99332.09
2022-11-22T18:16:18.234Z,99332.94
2022-11-22T18:18:56.694Z,99340.78
2022-11-22T18:21:29.535Z,99339.97
2022-11-22T18:23:59.120Z,99340.88
2022-11-22T18:26:42.975Z,99347.94
2022-11-22T18:32:01.936Z,99348.75
2022-11-22T18:34:30.759Z,99337.28
2022-11-22T18:37:03.787Z,99341.63
2022-11-22T18:39:38.999Z,99341.63
2022-11-22T18:42:11.942Z,99340.78
2022-11-22T18:44:39.309Z,99344.31
2022-11-22T18:47:06.558Z,99348.81
2022-11-22T18:49:34.205Z,99353.25
2022-11-22T18:52:02.554Z,99351.56
2022-11-22T18:54:29.950Z,99346.38
2022-11-22T18:56:57.310Z,99349.84
2022-11-22T18:59:24.345Z,99350.66
2022-11-22T19:01:51.479Z,99349.66
2022-11-22T19:04:19.619Z,99354.84
2022-11-22T19:06:49.473Z,99359.13
2022-11-22T19:09:16.539Z,99362.59
2022-11-22T19:11:43.526Z,99357.41
2022-11-22T19:14:10.806Z,99357.47
2022-11-22T19:16:37.969Z,99356.53
2022-11-22T19:19:05.123Z,99353.06
2022-11-22T19:21:32.220Z,99364.41
2022-11-22T19:23:59.340Z,99372.25
2022-11-22T19:26:28.345Z,99365.34
2022-11-22T19:28:59.823Z,99351.63
2022-11-22T19:31:29.325Z,99351.75
2022-11-22T19:34:00.170Z,99361.38
2022-11-22T19:36:36.429Z,99361.31
2022-11-22T19:39:09.975Z,99342.06
2022-11-22T19:41:37.262Z,99342.06
2022-11-22T19:44:04.281Z,99351.66
2022-11-22T19:46:32.587Z,99348.13
2022-11-22T19:49:01.354Z,99347.22
2022-11-22T19:51:31.158Z,99343.75
2022-11-22T19:54:02.976Z,99358.63
2022-11-22T19:56:34.424Z,99359.50
2022-11-22T19:59:05.041Z,99359.41
2022-11-22T20:01:35.240Z,99358.44
2022-11-22T20:04:06.073Z,99361.00
2022-11-22T20:06:36.602Z,99359.16
2022-11-22T20:09:09.746Z,99370.31
2022-11-22T20:11:39.731Z,99372.88
2022-11-22T20:14:09.378Z,99370.97
2022-11-22T20:16:41.338Z,99364.84
2022-11-22T20:19:10.544Z,99366.50
2022-11-22T20:21:39.296Z,99372.56
2022-11-22T20:24:08.826Z,99368.19
2022-11-22T20:26:36.246Z,99373.41
2022-11-22T20:29:07.354Z,99364.63
2022-11-22T20:31:37.898Z,99376.00
2022-11-22T20:34:05.572Z,99381.13
2022-11-22T20:36:35.348Z,99371.66
2022-11-22T20:39:10.492Z,99381.16
2022-11-22T20:41:39.996Z,99379.41
2022-11-22T20:44:12.874Z,99381.91
2022-11-22T20:46:40.822Z,99388.00
2022-11-22T20:49:09.133Z,99380.94
2022-11-22T20:51:38.690Z,99384.41
2022-11-22T20:54:07.495Z,99389.66
2022-11-22T20:56:34.713Z,99383.56
2022-11-22T20:59:01.750Z,99388.72
2022-11-22T21:01:31.689Z,99384.31
2022-11-22T21:03:58.889Z,99387.88
2022-11-22T21:06:29.028Z,99382.69
2022-11-22T21:08:56.259Z,99389.66
2022-11-22T21:11:29.262Z,99388.72
2022-11-22T21:13:58.376Z,99391.34
2022-11-22T21:16:29.632Z,99382.69
2022-11-22T21:19:05.125Z,99391.28
2022-11-22T21:21:36.093Z,99386.00
2022-11-22T21:24:05.938Z,99398.19
2022-11-22T21:26:33.872Z,99390.34
2022-11-22T21:29:03.168Z,99398.13
2022-11-22T21:31:31.226Z,99398.06
2022-11-22T21:33:58.197Z,99402.28
2022-11-22T21:36:26.358Z,99409.22
2022-11-22T21:38:54.357Z,99410.03
2022-11-22T21:41:41.340Z,99402.91
2022-11-22T21:44:09.753Z,99405.50
2022-11-22T21:46:37.627Z,99407.22
2022-11-22T21:49:05.265Z,99406.25
2022-11-22T21:51:32.435Z,99401.97
2022-11-22T21:54:01.852Z,99404.50
2022-11-22T21:56:29.833Z,99410.59
2022-11-22T21:58:57.460Z,99417.56
2022-11-22T22:01:25.426Z,99407.00
2022-11-22T22:03:53.477Z,99412.13
2022-11-22T22:06:20.942Z,99409.56
2022-11-22T22:08:49.282Z,99408.69
2022-11-22T22:11:18.319Z,99419.97
2022-11-22T22:13:45.466Z,99414.69
2022-11-22T22:16:18.753Z,99419.06
2022-11-22T22:18:46.441Z,99414.69
2022-11-22T22:21:14.033Z,99408.53
2022-11-22T22:23:43.251Z,99413.78
2022-11-22T22:26:15.714Z,99411.09
2022-11-22T22:28:45.163Z,99414.53
2022-11-22T22:31:22.995Z,99417.13
2022-11-22T22:33:54.351Z,99420.59
2022-11-22T22:36:22.358Z,99417.97
2022-11-22T22:38:50.011Z,99424.84
2022-11-22T22:41:18.215Z,99421.19
2022-11-22T22:43:49.632Z,99418.56
2022-11-22T22:46:21.138Z,99421.06
2022-11-22T22:48:49.391Z,99425.44
2022-11-22T22:51:27.493Z,99426.25
2022-11-22T22:53:59.116Z,99425.34
2022-11-22T22:56:29.300Z,99428.75
2022-11-22T22:58:58.963Z,99425.25
2022-11-22T23:01:29.915Z,99432.22
2022-11-22T23:04:01.850Z,99438.25
2022-11-22T23:06:36.039Z,99447.03
2022-11-22T23:09:07.537Z,99438.34
2022-11-22T23:11:55.211Z,99438.25
2022-11-22T23:14:25.997Z,99448.69
2022-11-22T23:16:57.609Z,99443.44
2022-11-22T23:19:26.692Z,99444.22
2022-11-22T23:21:54.699Z,99459.13
2022-11-22T23:24:22.750Z,99458.22
2022-11-22T23:26:49.804Z,99461.63
2022-11-22T23:29:16.918Z,99459.84
2022-11-22T23:31:43.911Z,99461.63
2022-11-22T23:34:12.354Z,99461.69
2022-11-22T23:36:41.186Z,99464.25
2022-11-22T23:39:09.283Z,99465.94
2022-11-22T23:41:37.391Z,99465.91
2022-11-22T23:44:04.835Z,99471.16
2022-11-22T23:46:32.237Z,99479.88
2022-11-22T23:49:03.403Z,99481.50
2022-11-22T23:51:32.690Z,99478.03
2022-11-22T23:54:03.773Z,99480.59
2022-11-22T23:56:33.081Z,99485.78
2022-11-22T23:59:01.414Z,99484.84
